createdAt,value
2019-04-29T00:02:16.509Z,64.31
2019-04-29T00:04:42.851Z,64.84
2019-04-29T00:07:09.257Z,64.96
2019-04-29T00:09:35.987Z,64.27
2019-04-29T00:12:02.309Z,64.15
2019-04-29T00:15:01.729Z,65.13
2019-04-29T00:17:42.042Z,65.13
2019-04-29T00:20:08.359Z,64.39
2019-04-29T00:22:34.673Z,64.48
2019-04-29T00:25:01.109Z,64.77
2019-04-29T00:27:27.726Z,64.48
2019-04-29T00:29:54.557Z,64.14
2019-04-29T00:32:21.302Z,64.20
2019-04-29T00:34:48.255Z,63.42
2019-04-29T00:37:33.629Z,63.69
2019-04-29T00:40:11.112Z,63.75
2019-04-29T00:45:22.481Z,64.59
2019-04-29T00:47:49.262Z,63.97
2019-04-29T00:50:15.701Z,63.88
2019-04-29T00:52:42.044Z,63.87
2019-04-29T00:55:11.242Z,63.68
2019-04-29T00:57:37.950Z,64.46
2019-04-29T01:00:12.631Z,65.23
2019-04-29T01:02:39.055Z,65.15
2019-04-29T01:05:05.960Z,65.29
2019-04-29T01:07:32.301Z,64.65
2019-04-29T01:09:58.690Z,65.16
2019-04-29T01:12:25.362Z,64.88
2019-04-29T01:14:51.986Z,65.11
2019-04-29T01:17:18.831Z,64.98
2019-04-29T01:19:45.188Z,64.61
2019-04-29T01:22:11.934Z,64.15
2019-04-29T01:24:38.565Z,64.75
2019-04-29T01:27:09.457Z,64.68
2019-04-29T01:29:35.781Z,64.56
2019-04-29T01:32:02.439Z,64.63
2019-04-29T01:34:37.196Z,64.66
2019-04-29T01:37:04.553Z,64.48
2019-04-29T01:39:45.113Z,64.14
2019-04-29T01:42:14.348Z,64.57
2019-04-29T01:44:41.050Z,64.14
2019-04-29T01:47:07.363Z,64.45
2019-04-29T01:49:33.692Z,63.70
2019-04-29T01:52:00.359Z,62.77
2019-04-29T01:54:26.703Z,63.21
2019-04-29T01:56:53.026Z,63.76
2019-04-29T01:59:19.392Z,63.92
2019-04-29T02:01:45.694Z,63.93
2019-04-29T02:04:12.316Z,63.77
2019-04-29T02:06:38.947Z,63.88
2019-04-29T02:09:10.104Z,63.47
2019-04-29T02:11:35.897Z,64.18
2019-04-29T02:14:03.368Z,64.84
2019-04-29T02:16:29.703Z,65.12
2019-04-29T02:18:56.046Z,64.79
2019-04-29T02:21:22.446Z,65.34
2019-04-29T02:23:53.392Z,65.20
2019-04-29T02:26:19.750Z,64.32
2019-04-29T02:28:46.382Z,65.36
2019-04-29T02:31:31.381Z,65.81
2019-04-29T02:33:57.720Z,65.89
2019-04-29T02:36:24.330Z,65.88
2019-04-29T02:38:52.541Z,65.72
2019-04-29T02:41:23.441Z,65.78
2019-04-29T02:43:51.714Z,65.59
2019-04-29T02:46:18.138Z,66.01
2019-04-29T02:48:44.513Z,66.22
2019-04-29T02:51:12.774Z,65.63
2019-04-29T02:53:39.225Z,66.50
2019-04-29T02:56:05.575Z,66.58
2019-04-29T02:58:34.091Z,67.00
2019-04-29T03:01:19.093Z,67.07
2019-04-29T03:04:02.429Z,67.44
2019-04-29T03:06:28.793Z,67.79
2019-04-29T03:08:55.090Z,67.33
2019-04-29T03:11:21.532Z,66.33
2019-04-29T03:13:48.156Z,67.26
2019-04-29T03:16:14.617Z,67.61
2019-04-29T03:18:43.057Z,67.66
2019-04-29T03:21:11.384Z,67.26
2019-04-29T03:23:37.727Z,67.13
2019-04-29T03:26:04.102Z,67.80
2019-04-29T03:28:30.741Z,67.60
2019-04-29T03:30:57.098Z,67.27
2019-04-29T03:33:23.917Z,67.76
2019-04-29T03:35:50.235Z,67.61
2019-04-29T03:38:16.873Z,67.11
2019-04-29T03:40:43.524Z,66.87
2019-04-29T03:43:09.851Z,67.06
2019-04-29T03:45:36.169Z,67.25
2019-04-29T03:48:03.328Z,67.33
2019-04-29T03:50:30.074Z,67.16
2019-04-29T03:52:56.375Z,67.04
2019-04-29T03:55:38.245Z,66.71
2019-04-29T03:57:50.910Z,66.47
2019-04-29T04:00:18.304Z,67.60
2019-04-29T04:03:03.101Z,67.10
2019-04-29T04:05:46.309Z,67.17
2019-04-29T04:08:17.804Z,68.04
2019-04-29T04:10:44.153Z,67.95
2019-04-29T04:13:10.531Z,67.71
2019-04-29T04:15:37.228Z,67.19
2019-04-29T04:18:05.494Z,67.47
2019-04-29T04:20:32.223Z,67.45
2019-04-29T04:22:58.587Z,68.01
2019-04-29T04:25:24.909Z,68.13
2019-04-29T04:27:51.634Z,68.27
2019-04-29T04:30:19.221Z,68.34
2019-04-29T04:32:45.546Z,67.68
2019-04-29T04:35:12.054Z,67.76
2019-04-29T04:37:38.369Z,67.40
2019-04-29T04:40:07.380Z,67.34
2019-04-29T04:42:33.674Z,67.36
2019-04-29T04:45:00.017Z,66.73
2019-04-29T04:47:27.411Z,67.12
2019-04-29T04:49:54.787Z,67.85
2019-04-29T04:52:21.128Z,68.33
2019-04-29T04:54:49.710Z,68.42
2019-04-29T04:57:16.027Z,67.81
2019-04-29T04:59:43.762Z,67.52
2019-04-29T05:02:10.397Z,66.84
2019-04-29T05:04:37.198Z,68.01
2019-04-29T05:07:04.035Z,68.32
2019-04-29T05:09:30.424Z,68.22
2019-04-29T05:11:56.787Z,68.57
2019-04-29T05:14:23.125Z,69.49
2019-04-29T05:16:50.665Z,70.26
2019-04-29T05:19:17.014Z,69.93
2019-04-29T05:21:43.923Z,70.89
2019-04-29T05:24:11.348Z,70.26
2019-04-29T05:26:37.787Z,69.64
2019-04-29T05:29:04.444Z,71.47
2019-04-29T05:31:30.792Z,71.73
2019-04-29T05:33:57.233Z,71.95
2019-04-29T05:36:34.031Z,72.30
2019-04-29T05:39:07.806Z,71.66
2019-04-29T05:41:34.903Z,71.97
2019-04-29T05:44:10.303Z,72.56
2019-04-29T05:46:38.896Z,72.77
2019-04-29T05:49:07.652Z,73.74
2019-04-29T05:51:43.041Z,75.04
2019-04-29T05:54:14.227Z,74.47
2019-04-29T05:56:40.594Z,75.74
2019-04-29T05:59:08.497Z,75.38
2019-04-29T06:01:35.552Z,75.21
2019-04-29T06:04:02.120Z,75.98
2019-04-29T06:06:28.786Z,76.19
2019-04-29T06:08:55.096Z,76.45
2019-04-29T06:11:23.161Z,76.25
2019-04-29T06:13:49.703Z,76.79
2019-04-29T06:16:20.911Z,75.86
2019-04-29T06:18:44.275Z,76.14
2019-04-29T06:21:10.615Z,75.63
2019-04-29T06:23:36.947Z,75.60
2019-04-29T06:26:03.263Z,75.79
2019-04-29T06:28:29.609Z,76.38
2019-04-29T06:30:56.287Z,77.76
2019-04-29T06:33:24.242Z,79.04
2019-04-29T06:35:56.937Z,77.67
2019-04-29T06:38:20.906Z,78.25
2019-04-29T06:40:47.270Z,78.76
2019-04-29T06:43:13.617Z,78.61
2019-04-29T06:45:39.979Z,78.77
2019-04-29T06:48:06.641Z,78.60
2019-04-29T06:50:34.306Z,77.09
2019-04-29T06:53:00.616Z,77.27
2019-04-29T06:55:27.004Z,78.26
2019-04-29T06:57:53.322Z,78.48
2019-04-29T07:00:22.321Z,78.24
2019-04-29T07:02:49.874Z,78.83
2019-04-29T07:05:16.215Z,78.42
2019-04-29T07:07:42.536Z,78.40
2019-04-29T07:10:09.241Z,78.48
2019-04-29T07:12:36.702Z,79.11
2019-04-29T07:15:07.759Z,79.97
2019-04-29T07:17:36.597Z,80.70
2019-04-29T07:20:03.185Z,80.39
2019-04-29T07:22:31.224Z,81.14
2019-04-29T07:24:57.737Z,80.68
2019-04-29T07:27:24.537Z,79.71
2019-04-29T07:29:50.964Z,79.29
2019-04-29T07:32:18.696Z,79.41
2019-04-29T07:34:45.012Z,79.80
2019-04-29T07:37:11.341Z,78.98
2019-04-29T07:39:39.081Z,78.69
2019-04-29T07:42:05.695Z,80.38
2019-04-29T07:44:43.830Z,80.76
2019-04-29T07:47:02.652Z,80.86
2019-04-29T07:49:29.290Z,81.14
2019-04-29T07:51:55.679Z,80.87
2019-04-29T07:54:22.008Z,81.42
2019-04-29T07:56:48.707Z,80.66
2019-04-29T07:59:15.338Z,79.70
2019-04-29T08:01:41.993Z,79.80
2019-04-29T08:04:08.343Z,79.13
2019-04-29T08:06:38.118Z,78.37
2019-04-29T08:09:08.039Z,79.13
2019-04-29T08:11:34.714Z,78.51
2019-04-29T08:14:02.656Z,80.93
2019-04-29T08:16:29.287Z,83.80
2019-04-29T08:18:55.674Z,84.61
2019-04-29T08:21:21.998Z,85.49
2019-04-29T08:23:48.701Z,85.73
2019-04-29T08:26:15.429Z,85.57
2019-04-29T08:28:43.161Z,86.49
2019-04-29T08:31:09.463Z,85.83
2019-04-29T08:33:35.973Z,86.06
2019-04-29T08:36:02.877Z,86.37
2019-04-29T08:38:30.669Z,86.22
2019-04-29T08:40:57.408Z,85.85
2019-04-29T08:43:26.579Z,85.47
2019-04-29T08:45:55.188Z,83.74
2019-04-29T08:48:21.556Z,82.35
2019-04-29T08:50:47.888Z,81.41
2019-04-29T08:53:14.497Z,81.43
2019-04-29T08:55:41.096Z,80.53
2019-04-29T08:58:11.191Z,80.54
2019-04-29T09:00:35.980Z,78.92
2019-04-29T09:03:02.579Z,79.14
2019-04-29T09:05:29.168Z,79.85
2019-04-29T09:07:57.216Z,78.83
2019-04-29T09:10:24.179Z,79.28
2019-04-29T09:12:50.888Z,78.90
2019-04-29T09:15:17.316Z,79.43
2019-04-29T09:17:43.654Z,80.40
2019-04-29T09:20:10.306Z,80.63
2019-04-29T09:22:38.594Z,81.96
2019-04-29T09:25:16.718Z,82.50
2019-04-29T09:27:46.947Z,82.01
2019-04-29T09:30:15.106Z,82.77
2019-04-29T09:32:41.519Z,81.75
2019-04-29T09:35:08.448Z,83.21
2019-04-29T09:37:35.780Z,83.26
2019-04-29T09:40:06.986Z,84.09
2019-04-29T09:42:38.491Z,83.87
2019-04-29T09:45:07.154Z,83.45
2019-04-29T09:47:33.822Z,82.57
2019-04-29T09:50:00.178Z,85.00
2019-04-29T09:52:26.595Z,84.91
2019-04-29T09:54:53.730Z,83.85
2019-04-29T09:57:20.368Z,83.36
2019-04-29T09:59:48.595Z,84.63
2019-04-29T10:02:33.189Z,83.36
2019-04-29T10:05:19.993Z,83.65
2019-04-29T10:07:46.755Z,82.50
2019-04-29T10:10:13.713Z,84.76
2019-04-29T10:12:40.148Z,84.67
2019-04-29T10:15:09.025Z,85.80
2019-04-29T10:17:40.089Z,86.31
2019-04-29T10:20:10.714Z,87.46
2019-04-29T10:22:37.445Z,86.15
2019-04-29T10:25:05.274Z,85.12
2019-04-29T10:27:31.937Z,85.20
2019-04-29T10:29:58.268Z,84.81
2019-04-29T10:32:24.713Z,85.34
2019-04-29T10:34:51.479Z,86.02
2019-04-29T10:37:17.803Z,83.73
2019-04-29T10:39:52.047Z,82.18
2019-04-29T10:42:24.703Z,81.00
2019-04-29T10:44:52.934Z,82.09
2019-04-29T10:47:21.444Z,80.30
2019-04-29T10:49:56.138Z,81.49
2019-04-29T10:52:23.128Z,80.12
2019-04-29T10:54:51.159Z,80.16
2019-04-29T10:57:19.784Z,81.23
2019-04-29T10:59:50.275Z,80.44
2019-04-29T11:02:19.582Z,80.09
2019-04-29T11:04:48.228Z,79.39
2019-04-29T11:07:18.722Z,79.51
2019-04-29T11:09:50.769Z,79.74
2019-04-29T11:12:18.662Z,78.37
2019-04-29T11:14:45.293Z,79.97
2019-04-29T11:17:16.414Z,80.46
2019-04-29T11:19:41.650Z,79.93
2019-04-29T11:22:08.636Z,79.77
2019-04-29T11:24:34.967Z,79.28
2019-04-29T11:27:12.591Z,79.44
2019-04-29T11:29:40.502Z,79.73
2019-04-29T11:32:08.831Z,79.84
2019-04-29T11:34:55.107Z,79.21
2019-04-29T11:37:24.197Z,79.39
2019-04-29T11:39:51.736Z,79.18
2019-04-29T11:42:18.656Z,79.69
2019-04-29T11:44:45.112Z,79.25
2019-04-29T11:47:11.508Z,78.91
2019-04-29T11:49:40.126Z,78.28
2019-04-29T11:52:09.693Z,77.00
2019-04-29T11:54:35.327Z,77.74
2019-04-29T11:57:02.195Z,77.47
2019-04-29T11:59:46.018Z,78.13
2019-04-29T12:02:44.581Z,78.18
2019-04-29T12:04:56.303Z,78.96
2019-04-29T12:07:31.729Z,77.70
2019-04-29T12:09:51.289Z,78.62
2019-04-29T12:12:18.829Z,78.03
2019-04-29T12:14:53.423Z,79.01
2019-04-29T12:17:21.658Z,80.25
2019-04-29T12:19:58.835Z,80.68
2019-04-29T12:22:30.322Z,79.90
2019-04-29T12:24:53.492Z,78.71
2019-04-29T12:27:21.611Z,80.20
2019-04-29T12:29:48.947Z,80.98
2019-04-29T12:32:27.597Z,81.27
2019-04-29T12:34:56.750Z,81.32
2019-04-29T12:37:35.639Z,81.84
2019-04-29T12:40:09.740Z,81.17
2019-04-29T12:42:41.506Z,81.68
2019-04-29T12:45:25.992Z,81.27
2019-04-29T12:47:52.710Z,81.43
2019-04-29T12:50:21.702Z,82.35
2019-04-29T12:52:47.493Z,82.10
2019-04-29T12:55:20.206Z,82.74
2019-04-29T12:57:44.154Z,82.39
2019-04-29T13:00:12.949Z,81.43
2019-04-29T13:03:00.259Z,80.71
2019-04-29T13:05:57.550Z,79.72
2019-04-29T13:08:35.436Z,80.14
2019-04-29T13:11:14.746Z,79.89
2019-04-29T13:13:39.634Z,80.23
2019-04-29T13:16:27.515Z,80.14
2019-04-29T13:19:12.515Z,80.27
2019-04-29T13:21:39.161Z,81.42
2019-04-29T13:24:13.841Z,82.55
2019-04-29T13:26:36.927Z,81.26
2019-04-29T13:29:01.901Z,81.51
2019-04-29T13:31:37.929Z,81.83
2019-04-29T13:34:14.576Z,82.42
2019-04-29T13:36:31.266Z,82.61
2019-04-29T13:38:57.690Z,80.88
2019-04-29T13:41:25.919Z,80.07
2019-04-29T13:43:54.307Z,80.49
2019-04-29T13:46:22.930Z,80.46
2019-04-29T13:49:13.897Z,80.95
2019-04-29T13:51:43.370Z,80.92
2019-04-29T13:54:10.201Z,80.62
2019-04-29T13:56:54.672Z,80.93
2019-04-29T13:59:10.606Z,80.56
2019-04-29T14:01:57.837Z,80.86
2019-04-29T14:04:26.233Z,80.78
2019-04-29T14:06:57.035Z,79.75
2019-04-29T14:09:27.656Z,81.05
2019-04-29T14:12:01.407Z,82.95
2019-04-29T14:14:22.978Z,82.07
2019-04-29T14:17:06.756Z,82.27
2019-04-29T14:19:39.473Z,82.75
2019-04-29T14:21:47.842Z,83.41
2019-04-29T14:24:14.203Z,82.87
2019-04-29T14:26:46.094Z,82.46
2019-04-29T14:29:11.270Z,82.84
2019-04-29T14:31:37.729Z,82.65
2019-04-29T14:34:06.306Z,82.22
2019-04-29T14:36:32.960Z,80.55
2019-04-29T14:38:59.402Z,82.08
2019-04-29T14:41:29.342Z,81.96
2019-04-29T14:44:14.397Z,81.62
2019-04-29T14:46:44.118Z,81.82
2019-04-29T14:49:18.460Z,80.94
2019-04-29T14:51:45.092Z,82.17
2019-04-29T14:54:11.524Z,81.43
2019-04-29T14:56:38.146Z,81.59
2019-04-29T14:59:07.426Z,82.10
2019-04-29T15:01:35.890Z,82.15
2019-04-29T15:04:18.272Z,80.80
2019-04-29T15:06:41.552Z,80.91
2019-04-29T15:09:16.982Z,81.24
2019-04-29T15:11:45.455Z,81.42
2019-04-29T15:14:25.902Z,82.11
2019-04-29T15:17:12.993Z,82.26
2019-04-29T15:19:55.837Z,82.98
2019-04-29T15:22:24.801Z,82.71
2019-04-29T15:24:51.615Z,81.88
2019-04-29T15:27:18.207Z,82.53
2019-04-29T15:29:46.111Z,83.30
2019-04-29T15:32:12.692Z,83.45
2019-04-29T15:34:43.700Z,83.13
2019-04-29T15:37:07.407Z,83.60
2019-04-29T15:39:33.767Z,83.20
2019-04-29T15:42:01.929Z,82.73
2019-04-29T15:44:29.836Z,82.84
2019-04-29T15:46:56.382Z,83.24
2019-04-29T15:49:24.880Z,82.20
2019-04-29T15:51:51.619Z,82.64
2019-04-29T15:54:18.017Z,83.47
2019-04-29T15:56:44.375Z,83.09
2019-04-29T15:59:11.273Z,83.92
2019-04-29T16:01:41.353Z,83.88
2019-04-29T16:04:08.092Z,83.02
2019-04-29T16:06:40.030Z,81.62
2019-04-29T16:09:08.496Z,81.29
2019-04-29T16:11:37.108Z,80.52
2019-04-29T16:14:10.046Z,80.38
2019-04-29T16:16:35.960Z,79.42
2019-04-29T16:19:08.352Z,79.92
2019-04-29T16:21:39.052Z,79.48
2019-04-29T16:24:01.845Z,79.46
2019-04-29T16:26:30.340Z,78.87
2019-04-29T16:28:57.523Z,77.80
2019-04-29T16:31:24.174Z,78.90
2019-04-29T16:33:54.688Z,78.85
2019-04-29T16:36:22.888Z,78.57
2019-04-29T16:38:51.505Z,78.77
2019-04-29T16:41:37.572Z,78.12
2019-04-29T16:44:07.326Z,77.99
2019-04-29T16:46:37.571Z,78.00
2019-04-29T16:49:02.836Z,78.05
2019-04-29T16:51:29.308Z,77.96
2019-04-29T16:53:57.151Z,78.13
2019-04-29T16:56:23.641Z,78.81
2019-04-29T16:58:50.576Z,78.23
2019-04-29T17:01:17.165Z,77.17
2019-04-29T17:03:43.593Z,77.67
2019-04-29T17:06:09.956Z,77.82
2019-04-29T17:09:02.918Z,77.83
2019-04-29T17:11:30.881Z,77.69
2019-04-29T17:13:57.285Z,78.62
2019-04-29T17:16:25.672Z,78.75
2019-04-29T17:18:52.588Z,78.50
2019-04-29T17:21:19.224Z,78.12
2019-04-29T17:23:45.865Z,78.02
2019-04-29T17:26:12.192Z,78.15
2019-04-29T17:28:58.811Z,78.60
2019-04-29T17:31:27.519Z,78.09
2019-04-29T17:33:57.152Z,78.31
2019-04-29T17:36:25.815Z,79.24
2019-04-29T17:38:52.493Z,80.01
2019-04-29T17:41:18.814Z,80.29
2019-04-29T17:43:47.056Z,78.85
2019-04-29T17:46:32.097Z,79.18
2019-04-29T17:49:00.549Z,78.71
2019-04-29T17:51:29.344Z,80.29
2019-04-29T17:53:57.491Z,80.23
2019-04-29T17:56:32.289Z,79.33
2019-04-29T17:59:17.096Z,78.44
2019-04-29T18:01:48.491Z,78.81
2019-04-29T18:04:20.117Z,80.20
2019-04-29T18:07:10.423Z,80.74
2019-04-29T18:09:44.969Z,80.35
2019-04-29T18:12:15.047Z,79.18
2019-04-29T18:14:41.973Z,78.90
2019-04-29T18:17:26.906Z,78.40
2019-04-29T18:19:53.046Z,79.09
2019-04-29T18:22:34.802Z,78.77
2019-04-29T18:25:03.607Z,79.04
2019-04-29T18:27:36.855Z,78.41
2019-04-29T18:30:06.976Z,78.40
2019-04-29T18:32:36.396Z,78.79
2019-04-29T18:35:03.952Z,77.95
2019-04-29T18:37:34.232Z,79.06
2019-04-29T18:40:02.343Z,79.06
2019-04-29T18:42:28.329Z,79.79
2019-04-29T18:45:00.234Z,80.11
2019-04-29T18:47:27.577Z,79.57
2019-04-29T18:49:56.518Z,78.64
2019-04-29T18:52:27.761Z,79.69
2019-04-29T18:54:51.740Z,80.00
2019-04-29T18:57:27.839Z,78.62
2019-04-29T18:59:46.693Z,78.48
2019-04-29T19:02:14.586Z,78.32
2019-04-29T19:04:59.851Z,79.00
2019-04-29T19:07:26.921Z,78.77
2019-04-29T19:09:55.225Z,78.87
2019-04-29T19:12:22.425Z,78.11
2019-04-29T19:14:49.046Z,78.73
2019-04-29T19:17:16.978Z,77.84
2019-04-29T19:19:45.211Z,77.95
2019-04-29T19:22:15.685Z,78.23
2019-04-29T19:24:44.330Z,77.77
2019-04-29T19:27:11.509Z,77.99
2019-04-29T19:29:38.859Z,78.09
2019-04-29T19:32:06.588Z,78.28
2019-04-29T19:34:40.872Z,77.65
2019-04-29T19:37:01.721Z,78.30
2019-04-29T19:39:29.045Z,78.93
2019-04-29T19:41:55.777Z,78.76
2019-04-29T19:44:26.490Z,78.11
2019-04-29T19:46:50.691Z,78.78
2019-04-29T19:49:17.147Z,78.78
2019-04-29T19:51:47.245Z,78.42
2019-04-29T19:54:16.915Z,78.34
2019-04-29T19:56:41.248Z,78.02
2019-04-29T19:59:12.351Z,78.41
2019-04-29T20:01:37.921Z,78.24
2019-04-29T20:04:15.868Z,78.45
2019-04-29T20:06:38.841Z,78.65
2019-04-29T20:09:14.743Z,79.28
2019-04-29T20:11:37.785Z,78.16
2019-04-29T20:14:08.601Z,79.62
2019-04-29T20:16:57.303Z,79.67
2019-04-29T20:19:28.145Z,78.98
2019-04-29T20:22:00.030Z,78.63
2019-04-29T20:24:26.124Z,79.37
2019-04-29T20:26:52.703Z,78.41
2019-04-29T20:29:20.147Z,78.88
2019-04-29T20:31:51.571Z,78.67
2019-04-29T20:34:20.324Z,78.83
2019-04-29T20:36:45.527Z,78.96
2019-04-29T20:39:17.074Z,79.82
2019-04-29T20:41:44.419Z,79.11
2019-04-29T20:44:09.643Z,79.15
2019-04-29T20:46:45.426Z,78.83
2019-04-29T20:49:07.684Z,81.12
2019-04-29T20:51:48.954Z,81.28
2019-04-29T20:54:09.125Z,81.56
2019-04-29T20:56:36.029Z,82.03
2019-04-29T20:59:09.041Z,83.07
2019-04-29T21:01:38.197Z,82.68
2019-04-29T21:04:01.179Z,82.96
2019-04-29T21:06:27.547Z,82.47
2019-04-29T21:08:55.161Z,82.87
2019-04-29T21:11:26.286Z,82.35
2019-04-29T21:13:57.230Z,81.73
2019-04-29T21:16:32.023Z,81.85
2019-04-29T21:19:00.277Z,81.94
2019-04-29T21:21:26.729Z,81.39
2019-04-29T21:23:55.277Z,81.52
2019-04-29T21:26:22.122Z,81.44
2019-04-29T21:28:48.499Z,80.85
2019-04-29T21:31:18.544Z,80.11
2019-04-29T21:33:43.428Z,80.14
2019-04-29T21:36:15.920Z,79.22
2019-04-29T21:39:01.979Z,79.02
2019-04-29T21:41:29.341Z,78.78
2019-04-29T21:43:56.260Z,78.25
2019-04-29T21:46:27.811Z,78.60
2019-04-29T21:48:51.044Z,78.38
2019-04-29T21:51:17.540Z,77.42
2019-04-29T21:53:45.790Z,76.96
2019-04-29T21:56:12.270Z,75.29
2019-04-29T21:58:38.896Z,74.50
2019-04-29T22:01:06.725Z,73.98
2019-04-29T22:03:33.387Z,72.66
2019-04-29T22:06:00.430Z,73.27
2019-04-29T22:08:29.831Z,73.63
2019-04-29T22:10:58.310Z,73.16
2019-04-29T22:13:24.876Z,72.97
2019-04-29T22:15:51.827Z,72.31
2019-04-29T22:18:18.264Z,72.05
2019-04-29T22:20:45.006Z,71.62
2019-04-29T22:23:14.323Z,70.96
2019-04-29T22:25:41.161Z,71.11
2019-04-29T22:28:10.816Z,70.65
2019-04-29T22:30:36.978Z,69.48
2019-04-29T22:33:05.226Z,69.63
2019-04-29T22:35:32.759Z,69.00
2019-04-29T22:38:00.580Z,68.64
2019-04-29T22:40:27.222Z,68.87
2019-04-29T22:43:05.118Z,68.89
2019-04-29T22:45:29.608Z,68.38
2019-04-29T22:48:12.131Z,68.11
2019-04-29T22:50:24.823Z,67.81
2019-04-29T22:52:51.235Z,68.38
2019-04-29T22:55:18.632Z,68.47
2019-04-29T22:57:46.838Z,67.22
2019-04-29T23:00:15.421Z,65.70
2019-04-29T23:02:43.958Z,66.09
2019-04-29T23:05:10.638Z,65.27
2019-04-29T23:07:37.777Z,65.21
2019-04-29T23:10:06.004Z,64.72
2019-04-29T23:12:35.050Z,63.63
2019-04-29T23:15:03.069Z,62.46
2019-04-29T23:17:29.789Z,62.25
2019-04-29T23:20:01.088Z,63.79
2019-04-29T23:22:39.399Z,63.83
2019-04-29T23:25:07.768Z,62.87
2019-04-29T23:27:36.068Z,63.34
2019-04-29T23:30:05.711Z,63.52
2019-04-29T23:32:32.053Z,63.41
2019-04-29T23:35:01.742Z,63.03
2019-04-29T23:37:29.347Z,61.60
2019-04-29T23:39:55.801Z,61.16
2019-04-29T23:42:22.278Z,60.94
2019-04-29T23:44:48.967Z,60.76
2019-04-29T23:47:15.857Z,60.14
2019-04-29T23:49:46.680Z,59.95
2019-04-29T23:52:13.422Z,59.63
2019-04-29T23:54:46.957Z,59.57
2019-04-29T23:57:23.585Z,60.07
